sensor_id;sensor_type;location;lat;lon;timestamp;temperature;humidity
11025;DHT22;22890;51.820;8.682;2023-06-24T00:00:00;16.30;99.90
11025;DHT22;22890;51.820;8.682;2023-06-24T00:02:34;16.10;99.90
11025;DHT22;22890;51.820;8.682;2023-06-24T00:05:03;16.10;99.90
11025;DHT22;22890;51.820;8.682;2023-06-24T00:07:30;16.10;99.90
11025;DHT22;22890;51.820;8.682;2023-06-24T00:09:57;16.20;99.90
11025;DHT22;22890;51.820;8.682;2023-06-24T00:12:24;16.00;99.90
11025;DHT22;22890;51.820;8.682;2023-06-24T00:14:50;16.00;99.90
11025;DHT22;22890;51.820;8.682;2023-06-24T00:17:17;15.90;99.90
11025;DHT22;22890;51.820;8.682;2023-06-24T00:19:44;15.90;99.90
11025;DHT22;22890;51.820;8.682;2023-06-24T00:22:10;15.90;99.90
11025;DHT22;22890;51.820;8.682;2023-06-24T00:24:40;15.80;99.90
11025;DHT22;22890;51.820;8.682;2023-06-24T00:27:09;15.80;99.90
11025;DHT22;22890;51.820;8.682;2023-06-24T00:29:36;15.70;99.90
11025;DHT22;22890;51.820;8.682;2023-06-24T00:32:04;15.70;99.90
11025;DHT22;22890;51.820;8.682;2023-06-24T00:34:31;15.70;99.90
11025;DHT22;22890;51.820;8.682;2023-06-24T00:36:57;15.60;99.90
11025;DHT22;22890;51.820;8.682;2023-06-24T00:39:26;15.60;99.90
11025;DHT22;22890;51.820;8.682;2023-06-24T00:41:53;13.20;99.90
11025;DHT22;22890;51.820;8.682;2023-06-24T00:44:20;15.50;99.90
11025;DHT22;22890;51.820;8.682;2023-06-24T00:46:47;15.50;99.90
11025;DHT22;22890;51.820;8.682;2023-06-24T00:49:16;15.50;99.90
11025;DHT22;22890;51.820;8.682;2023-06-24T00:51:43;15.50;99.90
11025;DHT22;22890;51.820;8.682;2023-06-24T00:54:14;15.40;99.90
11025;DHT22;22890;51.820;8.682;2023-06-24T00:56:41;15.30;99.90
11025;DHT22;22890;51.820;8.682;2023-06-24T00:59:13;15.30;99.90
11025;DHT22;22890;51.820;8.682;2023-06-24T01:01:41;15.30;99.90
11025;DHT22;22890;51.820;8.682;2023-06-24T01:04:08;15.20;99.90
11025;DHT22;22890;51.820;8.682;2023-06-24T01:06:35;15.20;99.90
11025;DHT22;22890;51.820;8.682;2023-06-24T01:09:03;15.20;99.90
11025;DHT22;22890;51.820;8.682;2023-06-24T01:11:31;15.20;99.90
11025;DHT22;22890;51.820;8.682;2023-06-24T01:13:59;15.20;99.90
11025;DHT22;22890;51.820;8.682;2023-06-24T01:16:49;15.10;99.90
11025;DHT22;22890;51.820;8.682;2023-06-24T01:19:44;15.10;99.90
11025;DHT22;22890;51.820;8.682;2023-06-24T01:22:31;15.00;99.90
11025;DHT22;22890;51.820;8.682;2023-06-24T01:30:43;15.00;99.90
11025;DHT22;22890;51.820;8.682;2023-06-24T01:33:30;15.10;99.90
11025;DHT22;22890;51.820;8.682;2023-06-24T01:36:01;14.90;99.90
11025;DHT22;22890;51.820;8.682;2023-06-24T01:38:55;14.90;99.90
11025;DHT22;22890;51.820;8.682;2023-06-24T01:41:26;14.80;99.90
11025;DHT22;22890;51.820;8.682;2023-06-24T01:43:56;14.70;99.90
11025;DHT22;22890;51.820;8.682;2023-06-24T01:46:25;14.70;99.90
11025;DHT22;22890;51.820;8.682;2023-06-24T01:48:57;14.70;99.90
11025;DHT22;22890;51.820;8.682;2023-06-24T01:51:24;14.60;99.90
11025;DHT22;22890;51.820;8.682;2023-06-24T01:54:01;14.60;99.90
11025;DHT22;22890;51.820;8.682;2023-06-24T01:56:29;14.50;99.90
11025;DHT22;22890;51.820;8.682;2023-06-24T01:58:58;14.40;99.90
11025;DHT22;22890;51.820;8.682;2023-06-24T02:01:28;14.40;99.90
11025;DHT22;22890;51.820;8.682;2023-06-24T02:03:57;14.30;99.90
11025;DHT22;22890;51.820;8.682;2023-06-24T02:06:25;14.30;99.90
11025;DHT22;22890;51.820;8.682;2023-06-24T02:08:53;14.20;99.90
11025;DHT22;22890;51.820;8.682;2023-06-24T02:11:22;14.30;99.90
11025;DHT22;22890;51.820;8.682;2023-06-24T02:13:51;14.30;99.90
11025;DHT22;22890;51.820;8.682;2023-06-24T02:16:20;14.30;99.90
11025;DHT22;22890;51.820;8.682;2023-06-24T02:18:48;14.20;99.90
11025;DHT22;22890;51.820;8.682;2023-06-24T02:21:17;14.10;99.90
11025;DHT22;22890;51.820;8.682;2023-06-24T02:23:46;14.10;99.90
11025;DHT22;22890;51.820;8.682;2023-06-24T02:26:13;14.10;99.90
11025;DHT22;22890;51.820;8.682;2023-06-24T02:28:40;14.10;99.90
11025;DHT22;22890;51.820;8.682;2023-06-24T02:31:09;14.30;99.90
11025;DHT22;22890;51.820;8.682;2023-06-24T02:33:37;14.10;99.90
11025;DHT22;22890;51.820;8.682;2023-06-24T02:36:04;14.10;99.90
11025;DHT22;22890;51.820;8.682;2023-06-24T02:38:31;14.10;99.90
11025;DHT22;22890;51.820;8.682;2023-06-24T02:40:57;14.10;99.90
11025;DHT22;22890;51.820;8.682;2023-06-24T02:43:25;14.00;99.90
11025;DHT22;22890;51.820;8.682;2023-06-24T02:45:52;14.00;99.90
11025;DHT22;22890;51.820;8.682;2023-06-24T02:48:20;14.00;99.90
11025;DHT22;22890;51.820;8.682;2023-06-24T02:50:48;14.00;99.90
11025;DHT22;22890;51.820;8.682;2023-06-24T02:53:15;14.00;99.90
11025;DHT22;22890;51.820;8.682;2023-06-24T02:55:44;14.00;99.90
11025;DHT22;22890;51.820;8.682;2023-06-24T02:58:12;14.00;99.90
11025;DHT22;22890;51.820;8.682;2023-06-24T03:01:00;14.00;99.90
11025;DHT22;22890;51.820;8.682;2023-06-24T03:03:32;14.00;99.90
11025;DHT22;22890;51.820;8.682;2023-06-24T03:06:00;14.00;99.90
11025;DHT22;22890;51.820;8.682;2023-06-24T03:08:30;13.80;99.90
11025;DHT22;22890;51.820;8.682;2023-06-24T03:10:58;14.00;99.90
11025;DHT22;22890;51.820;8.682;2023-06-24T03:13:28;14.00;99.90
11025;DHT22;22890;51.820;8.682;2023-06-24T03:16:01;13.90;99.90
11025;DHT22;22890;51.820;8.682;2023-06-24T03:18:31;13.90;99.90
11025;DHT22;22890;51.820;8.682;2023-06-24T03:20:58;13.90;99.90
11025;DHT22;22890;51.820;8.682;2023-06-24T03:23:27;13.90;99.90
11025;DHT22;22890;51.820;8.682;2023-06-24T03:25:54;13.80;99.90
11025;DHT22;22890;51.820;8.682;2023-06-24T03:28:21;13.80;99.90
11025;DHT22;22890;51.820;8.682;2023-06-24T03:30:56;13.80;99.90
11025;DHT22;22890;51.820;8.682;2023-06-24T03:33:24;13.70;99.90
11025;DHT22;22890;51.820;8.682;2023-06-24T03:35:53;13.80;99.90
11025;DHT22;22890;51.820;8.682;2023-06-24T03:38:25;13.70;99.90
11025;DHT22;22890;51.820;8.682;2023-06-24T03:40:52;13.80;99.90
11025;DHT22;22890;51.820;8.682;2023-06-24T03:43:19;12.20;99.90
11025;DHT22;22890;51.820;8.682;2023-06-24T03:45:46;13.80;99.90
11025;DHT22;22890;51.820;8.682;2023-06-24T03:48:13;13.90;99.90
11025;DHT22;22890;51.820;8.682;2023-06-24T03:50:39;13.90;99.90
11025;DHT22;22890;51.820;8.682;2023-06-24T03:53:06;13.90;99.90
11025;DHT22;22890;51.820;8.682;2023-06-24T03:55:33;13.90;99.90
11025;DHT22;22890;51.820;8.682;2023-06-24T03:58:01;14.00;99.90
11025;DHT22;22890;51.820;8.682;2023-06-24T04:00:27;13.90;99.90
11025;DHT22;22890;51.820;8.682;2023-06-24T04:02:54;13.90;99.90
11025;DHT22;22890;51.820;8.682;2023-06-24T04:05:21;11.90;99.90
11025;DHT22;22890;51.820;8.682;2023-06-24T04:07:51;14.00;99.90
11025;DHT22;22890;51.820;8.682;2023-06-24T04:10:19;14.20;99.90
11025;DHT22;22890;51.820;8.682;2023-06-24T04:12:46;14.20;99.90
11025;DHT22;22890;51.820;8.682;2023-06-24T04:15:13;14.30;99.90
11025;DHT22;22890;51.820;8.682;2023-06-24T04:17:40;15.70;99.90
11025;DHT22;22890;51.820;8.682;2023-06-24T04:20:08;14.60;99.90
11025;DHT22;22890;51.820;8.682;2023-06-24T04:22:39;14.70;99.90
11025;DHT22;22890;51.820;8.682;2023-06-24T04:25:07;14.90;99.90
11025;DHT22;22890;51.820;8.682;2023-06-24T04:27:34;15.00;99.90
11025;DHT22;22890;51.820;8.682;2023-06-24T04:30:04;15.10;99.90
11025;DHT22;22890;51.820;8.682;2023-06-24T04:32:31;15.30;99.90
11025;DHT22;22890;51.820;8.682;2023-06-24T04:34:58;15.50;99.90
11025;DHT22;22890;51.820;8.682;2023-06-24T04:37:27;15.60;99.90
11025;DHT22;22890;51.820;8.682;2023-06-24T04:39:55;15.80;99.90
11025;DHT22;22890;51.820;8.682;2023-06-24T04:42:22;16.10;99.90
11025;DHT22;22890;51.820;8.682;2023-06-24T04:44:50;16.10;99.90
11025;DHT22;22890;51.820;8.682;2023-06-24T04:47:19;16.20;99.90
11025;DHT22;22890;51.820;8.682;2023-06-24T04:49:46;16.40;99.90
11025;DHT22;22890;51.820;8.682;2023-06-24T04:52:13;16.50;99.90
11025;DHT22;22890;51.820;8.682;2023-06-24T04:54:40;16.70;99.90
11025;DHT22;22890;51.820;8.682;2023-06-24T04:57:14;16.90;99.90
11025;DHT22;22890;51.820;8.682;2023-06-24T04:59:48;17.00;99.90
11025;DHT22;22890;51.820;8.682;2023-06-24T05:02:15;17.40;99.90
11025;DHT22;22890;51.820;8.682;2023-06-24T05:04:42;17.30;99.90
11025;DHT22;22890;51.820;8.682;2023-06-24T05:07:09;17.50;99.90
11025;DHT22;22890;51.820;8.682;2023-06-24T05:09:35;17.70;99.90
11025;DHT22;22890;51.820;8.682;2023-06-24T05:12:05;17.90;99.90
11025;DHT22;22890;51.820;8.682;2023-06-24T05:14:33;17.90;99.90
11025;DHT22;22890;51.820;8.682;2023-06-24T05:17:00;18.10;99.90
11025;DHT22;22890;51.820;8.682;2023-06-24T05:19:27;18.20;99.90
11025;DHT22;22890;51.820;8.682;2023-06-24T05:21:54;18.30;99.90
11025;DHT22;22890;51.820;8.682;2023-06-24T05:24:21;18.40;99.90
11025;DHT22;22890;51.820;8.682;2023-06-24T05:26:49;18.50;99.90
11025;DHT22;22890;51.820;8.682;2023-06-24T05:29:17;18.70;99.90
11025;DHT22;22890;51.820;8.682;2023-06-24T05:31:44;18.80;99.90
11025;DHT22;22890;51.820;8.682;2023-06-24T05:34:10;19.00;99.90
11025;DHT22;22890;51.820;8.682;2023-06-24T05:36:37;19.10;99.90
11025;DHT22;22890;51.820;8.682;2023-06-24T05:39:04;19.20;99.90
11025;DHT22;22890;51.820;8.682;2023-06-24T05:41:34;19.30;99.90
11025;DHT22;22890;51.820;8.682;2023-06-24T05:44:07;19.40;99.90
11025;DHT22;22890;51.820;8.682;2023-06-24T05:46:34;19.50;99.90
11025;DHT22;22890;51.820;8.682;2023-06-24T05:49:00;19.70;99.90
11025;DHT22;22890;51.820;8.682;2023-06-24T05:51:27;19.60;99.90
11025;DHT22;22890;51.820;8.682;2023-06-24T05:53:54;19.70;99.90
11025;DHT22;22890;51.820;8.682;2023-06-24T05:56:21;19.80;99.90
11025;DHT22;22890;51.820;8.682;2023-06-24T05:58:49;19.90;99.90
11025;DHT22;22890;51.820;8.682;2023-06-24T06:01:16;20.00;99.90
11025;DHT22;22890;51.820;8.682;2023-06-24T06:03:42;20.10;99.90
11025;DHT22;22890;51.820;8.682;2023-06-24T06:06:09;20.10;99.90
11025;DHT22;22890;51.820;8.682;2023-06-24T06:08:36;20.20;99.90
11025;DHT22;22890;51.820;8.682;2023-06-24T06:11:03;20.20;99.90
11025;DHT22;22890;51.820;8.682;2023-06-24T06:13:30;20.20;99.90
11025;DHT22;22890;51.820;8.682;2023-06-24T06:15:57;20.30;99.90
11025;DHT22;22890;51.820;8.682;2023-06-24T06:18:24;20.40;99.90
11025;DHT22;22890;51.820;8.682;2023-06-24T06:20:51;20.60;99.90
11025;DHT22;22890;51.820;8.682;2023-06-24T06:23:17;21.10;99.90
11025;DHT22;22890;51.820;8.682;2023-06-24T06:25:44;20.70;99.90
11025;DHT22;22890;51.820;8.682;2023-06-24T06:28:14;20.70;99.90
11025;DHT22;22890;51.820;8.682;2023-06-24T06:30:41;20.80;99.90
11025;DHT22;22890;51.820;8.682;2023-06-24T06:33:08;20.80;99.90
11025;DHT22;22890;51.820;8.682;2023-06-24T06:35:35;20.90;99.90
11025;DHT22;22890;51.820;8.682;2023-06-24T06:38:02;21.10;99.90
11025;DHT22;22890;51.820;8.682;2023-06-24T06:40:29;21.10;99.90
11025;DHT22;22890;51.820;8.682;2023-06-24T06:42:56;21.20;99.90
11025;DHT22;22890;51.820;8.682;2023-06-24T06:45:22;21.30;99.90
11025;DHT22;22890;51.820;8.682;2023-06-24T06:47:50;21.30;99.90
11025;DHT22;22890;51.820;8.682;2023-06-24T06:50:17;21.40;99.90
11025;DHT22;22890;51.820;8.682;2023-06-24T06:52:44;21.50;99.90
11025;DHT22;22890;51.820;8.682;2023-06-24T06:55:11;21.50;99.90
11025;DHT22;22890;51.820;8.682;2023-06-24T06:57:37;21.60;99.90
11025;DHT22;22890;51.820;8.682;2023-06-24T07:00:05;19.70;99.90
11025;DHT22;22890;51.820;8.682;2023-06-24T07:02:31;21.70;99.90
11025;DHT22;22890;51.820;8.682;2023-06-24T07:04:59;21.70;99.90
11025;DHT22;22890;51.820;8.682;2023-06-24T07:07:27;21.70;99.90
11025;DHT22;22890;51.820;8.682;2023-06-24T07:09:54;21.80;99.90
11025;DHT22;22890;51.820;8.682;2023-06-24T07:12:21;23.20;99.90
11025;DHT22;22890;51.820;8.682;2023-06-24T07:14:50;22.00;99.90
11025;DHT22;22890;51.820;8.682;2023-06-24T07:17:17;22.10;99.90
11025;DHT22;22890;51.820;8.682;2023-06-24T07:19:44;22.10;99.90
11025;DHT22;22890;51.820;8.682;2023-06-24T07:22:11;22.20;99.90
11025;DHT22;22890;51.820;8.682;2023-06-24T07:24:38;22.30;99.90
11025;DHT22;22890;51.820;8.682;2023-06-24T07:27:05;22.30;99.90
11025;DHT22;22890;51.820;8.682;2023-06-24T07:29:32;22.20;99.90
11025;DHT22;22890;51.820;8.682;2023-06-24T07:31:59;22.90;99.90
11025;DHT22;22890;51.820;8.682;2023-06-24T07:34:26;22.30;99.90
11025;DHT22;22890;51.820;8.682;2023-06-24T07:36:53;22.40;99.90
11025;DHT22;22890;51.820;8.682;2023-06-24T07:39:20;22.50;99.90
11025;DHT22;22890;51.820;8.682;2023-06-24T07:41:46;22.60;99.90
11025;DHT22;22890;51.820;8.682;2023-06-24T07:44:13;22.70;99.90
11025;DHT22;22890;51.820;8.682;2023-06-24T07:46:40;22.80;99.90
11025;DHT22;22890;51.820;8.682;2023-06-24T07:49:07;22.80;99.90
11025;DHT22;22890;51.820;8.682;2023-06-24T07:51:33;22.90;99.90
11025;DHT22;22890;51.820;8.682;2023-06-24T07:54:01;23.00;99.90
11025;DHT22;22890;51.820;8.682;2023-06-24T07:56:28;23.10;99.90
11025;DHT22;22890;51.820;8.682;2023-06-24T07:58:55;23.20;99.90
11025;DHT22;22890;51.820;8.682;2023-06-24T08:01:22;23.30;99.90
11025;DHT22;22890;51.820;8.682;2023-06-24T08:03:48;23.40;99.90
11025;DHT22;22890;51.820;8.682;2023-06-24T08:06:15;23.60;99.90
11025;DHT22;22890;51.820;8.682;2023-06-24T08:08:42;23.60;99.90
11025;DHT22;22890;51.820;8.682;2023-06-24T08:11:09;23.70;99.90
11025;DHT22;22890;51.820;8.682;2023-06-24T08:13:35;23.80;99.90
11025;DHT22;22890;51.820;8.682;2023-06-24T08:16:02;23.80;99.90
11025;DHT22;22890;51.820;8.682;2023-06-24T08:18:29;23.70;99.90
11025;DHT22;22890;51.820;8.682;2023-06-24T08:20:56;23.70;99.90
11025;DHT22;22890;51.820;8.682;2023-06-24T08:23:22;23.70;99.90
11025;DHT22;22890;51.820;8.682;2023-06-24T08:25:49;23.70;99.90
11025;DHT22;22890;51.820;8.682;2023-06-24T08:28:21;23.80;99.90
11025;DHT22;22890;51.820;8.682;2023-06-24T08:30:48;24.00;99.90
11025;DHT22;22890;51.820;8.682;2023-06-24T08:33:15;24.10;99.90
11025;DHT22;22890;51.820;8.682;2023-06-24T08:35:42;24.20;99.90
11025;DHT22;22890;51.820;8.682;2023-06-24T08:38:09;24.30;99.90
11025;DHT22;22890;51.820;8.682;2023-06-24T08:40:36;24.30;99.90
11025;DHT22;22890;51.820;8.682;2023-06-24T08:43:03;25.70;99.90
11025;DHT22;22890;51.820;8.682;2023-06-24T08:45:30;24.40;99.90
11025;DHT22;22890;51.820;8.682;2023-06-24T08:47:57;24.40;99.90
11025;DHT22;22890;51.820;8.682;2023-06-24T08:50:27;24.40;99.90
11025;DHT22;22890;51.820;8.682;2023-06-24T08:52:56;24.50;99.90
11025;DHT22;22890;51.820;8.682;2023-06-24T08:55:23;24.50;99.90
11025;DHT22;22890;51.820;8.682;2023-06-24T08:57:54;24.50;99.90
11025;DHT22;22890;51.820;8.682;2023-06-24T09:00:20;24.60;99.90
11025;DHT22;22890;51.820;8.682;2023-06-24T09:02:47;24.50;99.90
11025;DHT22;22890;51.820;8.682;2023-06-24T09:05:14;24.60;99.90
11025;DHT22;22890;51.820;8.682;2023-06-24T09:07:41;24.70;99.90
11025;DHT22;22890;51.820;8.682;2023-06-24T09:10:08;24.60;99.90
11025;DHT22;22890;51.820;8.682;2023-06-24T09:12:35;24.50;99.90
11025;DHT22;22890;51.820;8.682;2023-06-24T09:15:02;24.60;99.90
11025;DHT22;22890;51.820;8.682;2023-06-24T09:17:29;24.60;99.90
11025;DHT22;22890;51.820;8.682;2023-06-24T09:20:07;24.70;99.90
11025;DHT22;22890;51.820;8.682;2023-06-24T09:22:40;24.70;99.90
11025;DHT22;22890;51.820;8.682;2023-06-24T09:25:07;24.80;99.90
11025;DHT22;22890;51.820;8.682;2023-06-24T09:27:34;24.70;99.90
11025;DHT22;22890;51.820;8.682;2023-06-24T09:30:16;24.70;99.90
11025;DHT22;22890;51.820;8.682;2023-06-24T09:32:46;24.70;99.90
11025;DHT22;22890;51.820;8.682;2023-06-24T09:35:14;24.70;99.90
11025;DHT22;22890;51.820;8.682;2023-06-24T09:37:40;24.70;99.90
11025;DHT22;22890;51.820;8.682;2023-06-24T09:40:08;24.90;99.90
11025;DHT22;22890;51.820;8.682;2023-06-24T09:42:36;24.90;99.90
11025;DHT22;22890;51.820;8.682;2023-06-24T09:45:06;24.90;99.90
11025;DHT22;22890;51.820;8.682;2023-06-24T09:47:33;25.00;99.90
11025;DHT22;22890;51.820;8.682;2023-06-24T09:50:00;25.00;99.90
11025;DHT22;22890;51.820;8.682;2023-06-24T09:52:31;25.00;99.90
11025;DHT22;22890;51.820;8.682;2023-06-24T09:54:59;25.00;99.90
11025;DHT22;22890;51.820;8.682;2023-06-24T09:57:31;25.00;99.90
11025;DHT22;22890;51.820;8.682;2023-06-24T09:59:59;25.00;99.90
11025;DHT22;22890;51.820;8.682;2023-06-24T10:02:28;25.00;99.90
11025;DHT22;22890;51.820;8.682;2023-06-24T10:04:55;25.00;99.90
11025;DHT22;22890;51.820;8.682;2023-06-24T10:07:22;25.00;99.90
11025;DHT22;22890;51.820;8.682;2023-06-24T10:09:49;25.00;99.90
11025;DHT22;22890;51.820;8.682;2023-06-24T10:12:16;25.00;99.90
11025;DHT22;22890;51.820;8.682;2023-06-24T10:14:42;25.00;99.90
11025;DHT22;22890;51.820;8.682;2023-06-24T10:17:11;25.10;99.90
11025;DHT22;22890;51.820;8.682;2023-06-24T10:19:39;25.20;99.90
11025;DHT22;22890;51.820;8.682;2023-06-24T10:22:10;25.20;99.90
11025;DHT22;22890;51.820;8.682;2023-06-24T10:24:39;25.20;99.90
11025;DHT22;22890;51.820;8.682;2023-06-24T10:27:14;25.30;99.90
11025;DHT22;22890;51.820;8.682;2023-06-24T10:29:49;25.40;99.90
11025;DHT22;22890;51.820;8.682;2023-06-24T10:32:17;25.30;99.90
11025;DHT22;22890;51.820;8.682;2023-06-24T10:34:46;25.40;99.90
11025;DHT22;22890;51.820;8.682;2023-06-24T10:47:42;25.60;99.90
11025;DHT22;22890;51.820;8.682;2023-06-24T10:50:15;25.70;99.90
11025;DHT22;22890;51.820;8.682;2023-06-24T10:52:44;25.80;99.90
11025;DHT22;22890;51.820;8.682;2023-06-24T10:55:13;25.90;99.90
11025;DHT22;22890;51.820;8.682;2023-06-24T10:57:40;25.90;99.90
11025;DHT22;22890;51.820;8.682;2023-06-24T11:00:08;26.00;99.90
11025;DHT22;22890;51.820;8.682;2023-06-24T11:02:35;26.10;99.90
11025;DHT22;22890;51.820;8.682;2023-06-24T11:05:04;26.10;99.90
11025;DHT22;22890;51.820;8.682;2023-06-24T11:07:33;26.10;99.90
11025;DHT22;22890;51.820;8.682;2023-06-24T11:10:09;26.10;99.90
11025;DHT22;22890;51.820;8.682;2023-06-24T11:12:40;26.10;99.90
11025;DHT22;22890;51.820;8.682;2023-06-24T11:15:09;26.10;99.90
11025;DHT22;22890;51.820;8.682;2023-06-24T11:17:37;26.20;99.90
11025;DHT22;22890;51.820;8.682;2023-06-24T11:20:13;26.20;99.90
11025;DHT22;22890;51.820;8.682;2023-06-24T11:22:42;26.20;99.90
11025;DHT22;22890;51.820;8.682;2023-06-24T11:25:17;26.10;99.90
11025;DHT22;22890;51.820;8.682;2023-06-24T11:27:44;26.20;99.90
11025;DHT22;22890;51.820;8.682;2023-06-24T11:30:11;26.30;99.90
11025;DHT22;22890;51.820;8.682;2023-06-24T11:32:40;26.40;99.90
11025;DHT22;22890;51.820;8.682;2023-06-24T11:35:09;26.40;99.90
11025;DHT22;22890;51.820;8.682;2023-06-24T11:37:36;26.50;99.90
11025;DHT22;22890;51.820;8.682;2023-06-24T11:40:07;26.50;99.90
11025;DHT22;22890;51.820;8.682;2023-06-24T11:42:38;26.40;99.90
11025;DHT22;22890;51.820;8.682;2023-06-24T11:45:08;26.50;99.90
11025;DHT22;22890;51.820;8.682;2023-06-24T11:47:35;26.60;99.90
11025;DHT22;22890;51.820;8.682;2023-06-24T11:50:04;26.70;99.90
11025;DHT22;22890;51.820;8.682;2023-06-24T11:52:41;26.70;99.90
11025;DHT22;22890;51.820;8.682;2023-06-24T11:55:22;26.80;99.90
11025;DHT22;22890;51.820;8.682;2023-06-24T12:00:24;26.70;99.90
11025;DHT22;22890;51.820;8.682;2023-06-24T12:02:53;27.00;99.90
11025;DHT22;22890;51.820;8.682;2023-06-24T12:05:25;27.00;99.90
11025;DHT22;22890;51.820;8.682;2023-06-24T12:07:56;27.00;99.90
11025;DHT22;22890;51.820;8.682;2023-06-24T12:10:23;27.00;99.90
11025;DHT22;22890;51.820;8.682;2023-06-24T12:12:50;27.10;99.90
11025;DHT22;22890;51.820;8.682;2023-06-24T12:15:17;27.00;99.90
11025;DHT22;22890;51.820;8.682;2023-06-24T12:17:44;27.00;99.90
11025;DHT22;22890;51.820;8.682;2023-06-24T12:20:11;27.00;99.90
11025;DHT22;22890;51.820;8.682;2023-06-24T12:22:40;27.10;99.90
11025;DHT22;22890;51.820;8.682;2023-06-24T12:25:07;27.10;99.90
11025;DHT22;22890;51.820;8.682;2023-06-24T12:27:35;27.20;99.90
11025;DHT22;22890;51.820;8.682;2023-06-24T12:30:02;27.20;99.90
11025;DHT22;22890;51.820;8.682;2023-06-24T12:32:29;27.20;99.70
11025;DHT22;22890;51.820;8.682;2023-06-24T12:34:56;27.10;99.50
11025;DHT22;22890;51.820;8.682;2023-06-24T12:37:22;27.10;99.90
11025;DHT22;22890;51.820;8.682;2023-06-24T12:39:49;27.20;99.90
11025;DHT22;22890;51.820;8.682;2023-06-24T12:42:17;27.20;99.90
11025;DHT22;22890;51.820;8.682;2023-06-24T12:44:44;28.20;99.90
11025;DHT22;22890;51.820;8.682;2023-06-24T12:47:11;27.30;99.90
11025;DHT22;22890;51.820;8.682;2023-06-24T12:49:38;27.30;99.90
11025;DHT22;22890;51.820;8.682;2023-06-24T12:52:04;27.30;99.90
11025;DHT22;22890;51.820;8.682;2023-06-24T12:54:31;27.30;99.90
11025;DHT22;22890;51.820;8.682;2023-06-24T12:56:58;27.20;99.90
11025;DHT22;22890;51.820;8.682;2023-06-24T12:59:38;27.20;99.90
11025;DHT22;22890;51.820;8.682;2023-06-24T13:02:05;27.10;99.90
11025;DHT22;22890;51.820;8.682;2023-06-24T13:04:32;27.10;99.90
11025;DHT22;22890;51.820;8.682;2023-06-24T13:06:59;27.00;99.90
11025;DHT22;22890;51.820;8.682;2023-06-24T13:09:26;27.00;99.90
11025;DHT22;22890;51.820;8.682;2023-06-24T13:11:53;27.10;99.90
11025;DHT22;22890;51.820;8.682;2023-06-24T13:14:19;27.00;99.90
11025;DHT22;22890;51.820;8.682;2023-06-24T13:16:46;27.10;99.90
11025;DHT22;22890;51.820;8.682;2023-06-24T13:19:13;27.10;99.90
11025;DHT22;22890;51.820;8.682;2023-06-24T13:21:42;27.20;99.90
11025;DHT22;22890;51.820;8.682;2023-06-24T13:24:09;27.30;99.90
11025;DHT22;22890;51.820;8.682;2023-06-24T13:26:35;27.40;99.70
11025;DHT22;22890;51.820;8.682;2023-06-24T13:29:02;27.40;99.60
11025;DHT22;22890;51.820;8.682;2023-06-24T13:31:29;27.40;99.80
11025;DHT22;22890;51.820;8.682;2023-06-24T13:33:56;27.50;99.90
11025;DHT22;22890;51.820;8.682;2023-06-24T13:36:32;27.60;99.90
11025;DHT22;22890;51.820;8.682;2023-06-24T13:39:06;27.50;99.70
11025;DHT22;22890;51.820;8.682;2023-06-24T13:41:34;27.60;99.80
11025;DHT22;22890;51.820;8.682;2023-06-24T13:44:02;27.50;99.80
11025;DHT22;22890;51.820;8.682;2023-06-24T13:46:30;27.50;99.90
11025;DHT22;22890;51.820;8.682;2023-06-24T13:48:57;27.50;99.90
11025;DHT22;22890;51.820;8.682;2023-06-24T13:51:24;27.50;99.90
11025;DHT22;22890;51.820;8.682;2023-06-24T13:53:53;27.50;99.90
11025;DHT22;22890;51.820;8.682;2023-06-24T13:56:22;27.40;99.90
11025;DHT22;22890;51.820;8.682;2023-06-24T13:58:50;27.40;99.90
11025;DHT22;22890;51.820;8.682;2023-06-24T14:01:17;27.40;99.90
11025;DHT22;22890;51.820;8.682;2023-06-24T14:03:44;27.50;99.90
11025;DHT22;22890;51.820;8.682;2023-06-24T14:06:15;27.50;99.90
11025;DHT22;22890;51.820;8.682;2023-06-24T14:08:42;27.50;99.90
11025;DHT22;22890;51.820;8.682;2023-06-24T14:11:09;27.60;99.90
11025;DHT22;22890;51.820;8.682;2023-06-24T14:13:36;27.60;99.90
11025;DHT22;22890;51.820;8.682;2023-06-24T14:16:03;27.60;99.70
11025;DHT22;22890;51.820;8.682;2023-06-24T14:18:30;27.60;99.90
11025;DHT22;22890;51.820;8.682;2023-06-24T14:20:59;27.60;99.60
11025;DHT22;22890;51.820;8.682;2023-06-24T14:23:28;27.60;99.50
11025;DHT22;22890;51.820;8.682;2023-06-24T14:25:57;27.70;99.60
11025;DHT22;22890;51.820;8.682;2023-06-24T14:28:24;27.70;99.50
11025;DHT22;22890;51.820;8.682;2023-06-24T14:30:51;27.80;99.30
11025;DHT22;22890;51.820;8.682;2023-06-24T14:33:18;27.80;98.60
11025;DHT22;22890;51.820;8.682;2023-06-24T14:35:45;27.80;98.90
11025;DHT22;22890;51.820;8.682;2023-06-24T14:38:12;27.90;99.20
11025;DHT22;22890;51.820;8.682;2023-06-24T14:40:38;27.90;99.00
11025;DHT22;22890;51.820;8.682;2023-06-24T14:43:05;28.00;98.90
11025;DHT22;22890;51.820;8.682;2023-06-24T14:45:32;28.10;99.10
11025;DHT22;22890;51.820;8.682;2023-06-24T14:47:59;28.10;99.00
11025;DHT22;22890;51.820;8.682;2023-06-24T14:50:25;28.10;99.00
11025;DHT22;22890;51.820;8.682;2023-06-24T14:52:52;28.20;98.90
11025;DHT22;22890;51.820;8.682;2023-06-24T14:55:19;28.10;98.60
11025;DHT22;22890;51.820;8.682;2023-06-24T14:57:46;28.10;98.60
11025;DHT22;22890;51.820;8.682;2023-06-24T15:00:12;28.10;98.60
11025;DHT22;22890;51.820;8.682;2023-06-24T15:02:39;28.10;98.60
11025;DHT22;22890;51.820;8.682;2023-06-24T15:05:06;28.20;98.80
11025;DHT22;22890;51.820;8.682;2023-06-24T15:07:34;28.30;98.20
11025;DHT22;22890;51.820;8.682;2023-06-24T15:10:01;28.30;98.10
11025;DHT22;22890;51.820;8.682;2023-06-24T15:12:28;28.30;98.30
11025;DHT22;22890;51.820;8.682;2023-06-24T15:14:55;28.30;98.40
11025;DHT22;22890;51.820;8.682;2023-06-24T15:17:22;28.40;98.10
11025;DHT22;22890;51.820;8.682;2023-06-24T15:19:51;28.40;98.40
11025;DHT22;22890;51.820;8.682;2023-06-24T15:22:17;28.50;98.40
11025;DHT22;22890;51.820;8.682;2023-06-24T15:24:44;28.60;98.10
11025;DHT22;22890;51.820;8.682;2023-06-24T15:27:11;28.60;97.40
11025;DHT22;22890;51.820;8.682;2023-06-24T15:29:38;28.70;97.50
11025;DHT22;22890;51.820;8.682;2023-06-24T15:32:05;28.70;97.50
11025;DHT22;22890;51.820;8.682;2023-06-24T15:34:32;28.70;97.80
11025;DHT22;22890;51.820;8.682;2023-06-24T15:36:59;28.70;98.10
11025;DHT22;22890;51.820;8.682;2023-06-24T15:39:25;28.60;98.10
11025;DHT22;22890;51.820;8.682;2023-06-24T15:41:52;28.70;98.00
11025;DHT22;22890;51.820;8.682;2023-06-24T15:44:19;28.60;97.60
11025;DHT22;22890;51.820;8.682;2023-06-24T15:46:45;28.50;97.80
11025;DHT22;22890;51.820;8.682;2023-06-24T15:49:14;28.50;98.20
11025;DHT22;22890;51.820;8.682;2023-06-24T15:51:42;28.50;98.30
11025;DHT22;22890;51.820;8.682;2023-06-24T15:54:08;28.50;98.40